This is the latest recevied weather packets stored in our database for station/object OK1FET-16. If no packets are shown the sender has not sent any weather packets the latest 1 day(s).
| Time | Temp. | Humidity | Pressure | Rain* | Wind** | Luminosity | Snow |
|---|---|---|---|---|---|---|---|
| 1778001364 | 13.89° C | 76% | 1003.5 hPa | - | 3.13 m/s, 134° | - | - |
| 1778001095 | 14.44° C | 77% | 1003.5 hPa | - | 2.68 m/s, 137° | - | - |
| 1778001095 | 14.44° C | 77% | 1003.5 hPa | - | 2.68 m/s, 137° | - | - |
| 1778001094 | 14.44° C | 77% | 1003.5 hPa | - | 2.68 m/s, 137° | - | - |
| 1778001094 | 14.44° C | 77% | 1003.5 hPa | - | 2.68 m/s, 137° | - | - |
| 1778000284 | 14.44° C | 74% | 1003.6 hPa | - | 3.13 m/s, 150° | - | - |
| 1778000284 | 14.44° C | 74% | 1003.6 hPa | - | 3.13 m/s, 150° | - | - |
| 1778000284 | 14.44° C | 74% | 1003.6 hPa | - | 3.13 m/s, 150° | - | - |
| 1777997309 | 15° C | 68% | 1004.3 hPa | - | 2.24 m/s, 147° | - | - |
| 1777996769 | 15° C | 68% | 1004 hPa | - | 2.68 m/s, 159° | - | - |
| 1777996503 | 15° C | 69% | 1004.4 hPa | - | 2.24 m/s, 169° | - | - |
| 1777996503 | 15° C | 69% | 1004.4 hPa | - | 2.24 m/s, 169° | - | - |
| 1777995692 | 15.56° C | 68% | 1004.4 hPa | - | 3.13 m/s, 143° | - | - |
| 1777995692 | 15.56° C | 68% | 1004.4 hPa | - | 3.13 m/s, 143° | - | - |
| 1777995688 | 15.56° C | 68% | 1004.4 hPa | - | 3.13 m/s, 143° | - | - |
| 1777995148 | 16.11° C | 67% | 1004.4 hPa | - | 3.58 m/s, 138° | - | - |
| 1777993260 | 16.11° C | 63% | 1004.6 hPa | - | 3.13 m/s, 130° | - | - |
| 1777993260 | 16.11° C | 63% | 1004.6 hPa | - | 3.13 m/s, 130° | - | - |
| 1777993256 | 16.11° C | 63% | 1004.6 hPa | - | 3.13 m/s, 130° | - | - |
| 1777992986 | 16.11° C | 62% | 1004.6 hPa | - | 2.68 m/s, 131° | - | - |
| 1777988666 | 17.22° C | 48% | 1005.2 hPa | - | 3.58 m/s, 87° | - | - |
| 1777988666 | 17.22° C | 48% | 1005.2 hPa | - | 3.58 m/s, 87° | - | - |
| 1777988666 | 17.22° C | 48% | 1005.2 hPa | - | 3.58 m/s, 87° | - | - |
| 1777988665 | 17.22° C | 48% | 1005.2 hPa | - | 3.58 m/s, 87° | - | - |
| 1777988125 | 18.33° C | 47% | 1005.3 hPa | - | 0.45 m/s, 224° | - | - |
* Rain since midnight (hover to see other rain measurements)
** Current wind speed in m/s (hover to see current wind gust speed)